Time;durP1;ratioP1;P1;durP2;ratioP2;P2;SDS_P1;SDS_P2;PMS_P1;PMS_P2;Temp;Humidity;BMP_temperature;BMP_pressure;BME280_temperature;BME280_humidity;BME280_pressure;Samples;Min_cycle;Max_cycle;Signal;HPM_P1;HPM_P2
2022/07/20 00:02:09;;;;;;;4.62;1.90;;;;;;;18.08;56.09;99629.17;1700203;84;21076;-87
2022/07/20 00:04:36;;;;;;;6.45;2.45;;;;;;;17.95;52.99;99624.56;1696036;84;21131;-87
2022/07/20 00:07:03;;;;;;;6.70;2.30;;;;;;;17.78;54.25;99625.30;1672451;86;21077;-87
2022/07/20 00:12:14;;;;;;;5.03;2.33;;;;;;;17.58;53.31;99632.32;1700134;84;21067;-87
2022/07/20 00:14:41;;;;;;;6.12;2.20;;;;;;;17.47;55.30;99630.19;1687288;84;21081;-85
2022/07/20 00:17:09;;;;;;;5.42;2.20;;;;;;;17.42;56.51;99624.75;1700377;84;21027;-86
2022/07/20 00:19:36;;;;;;;5.58;2.05;;;;;;;17.41;54.91;99633.56;1700225;84;21070;-87
2022/07/20 00:22:02;;;;;;;4.28;2.22;;;;;;;17.36;56.87;99639.00;1700277;84;21019;-86
2022/07/20 00:24:29;;;;;;;7.45;2.98;;;;;;;17.34;55.33;99637.38;1700450;84;21034;-86
2022/07/20 00:26:56;;;;;;;7.30;2.45;;;;;;;17.26;56.91;99635.93;1700350;84;21043;-87
2022/07/20 00:29:22;;;;;;;6.33;2.10;;;;;;;17.26;56.92;99636.40;1685281;84;20972;-86
2022/07/20 00:31:49;;;;;;;5.03;2.30;;;;;;;17.25;56.73;99638.18;1672348;85;21019;-86
2022/07/20 00:34:15;;;;;;;7.92;2.22;;;;;;;17.22;58.70;99639.61;1672475;85;21075;-87
2022/07/20 00:36:42;;;;;;;4.60;2.35;;;;;;;17.20;55.78;99639.30;1694474;85;21011;-87
2022/07/20 00:39:09;;;;;;;6.85;2.08;;;;;;;17.16;58.29;99642.51;1646503;87;21045;-86
2022/07/20 00:41:35;;;;;;;5.35;1.92;;;;;;;17.12;55.74;99630.43;1697467;85;21068;-86
2022/07/20 00:44:09;;;;;;;7.87;2.30;;;;;;;17.10;56.29;99627.02;1697620;85;21071;-87
2022/07/20 00:46:42;;;;;;;5.78;2.08;;;;;;;17.08;57.68;99630.17;1672128;85;21022;-86
2022/07/20 00:49:11;;;;;;;7.95;2.47;;;;;;;17.05;58.26;99625.03;1688092;85;20999;-87
2022/07/20 00:51:42;;;;;;;8.15;2.50;;;;;;;17.02;55.80;99617.30;1688340;85;21015;-87
2022/07/20 00:54:10;;;;;;;5.80;2.20;;;;;;;17.01;56.50;99618.21;1695973;85;21011;-87
2022/07/20 00:56:38;;;;;;;6.25;2.02;;;;;;;17.01;56.90;99618.21;1661534;86;21044;-87
2022/07/20 00:59:07;;;;;;;8.90;2.77;;;;;;;17.00;57.88;99619.99;1661506;86;21019;-87
2022/07/20 01:01:35;;;;;;;4.50;2.40;;;;;;;16.99;55.73;99616.11;1661284;86;21047;-87
2022/07/20 01:04:03;;;;;;;5.30;2.05;;;;;;;16.93;55.88;99621.20;1677922;85;21007;-87
2022/07/20 01:06:30;;;;;;;9.13;2.30;;;;;;;16.92;57.38;99624.72;1688756;85;21031;-87
2022/07/20 01:08:57;;;;;;;6.30;2.47;;;;;;;16.88;57.38;99618.74;1691449;85;21044;-86
2022/07/20 01:11:24;;;;;;;5.08;2.30;;;;;;;16.89;57.11;99611.27;1692553;85;21037;-87
2022/07/20 01:13:51;;;;;;;9.55;2.20;;;;;;;16.86;57.68;99615.33;1637425;87;21785;-87
2022/07/20 01:16:18;;;;;;;5.28;2.62;;;;;;;16.86;56.65;99615.80;1697433;85;21039;-87
2022/07/20 01:18:44;;;;;;;6.47;2.40;;;;;;;16.84;58.58;99615.86;1697454;85;21063;-87
2022/07/20 01:21:11;;;;;;;9.33;2.52;;;;;;;16.82;57.75;99612.44;1685110;85;20968;-87
2022/07/20 01:23:38;;;;;;;5.42;2.30;;;;;;;16.81;58.28;99616.00;1690023;85;21039;-86
2022/07/20 01:26:04;;;;;;;5.50;2.95;;;;;;;16.84;58.62;99626.83;1686691;85;21035;-87
2022/07/20 01:28:31;;;;;;;6.20;2.47;;;;;;;16.85;58.80;99628.52;1695362;85;21017;-87
2022/07/20 01:30:59;;;;;;;8.15;2.22;;;;;;;16.80;59.30;99628.69;1646316;87;21022;-87
2022/07/20 01:33:25;;;;;;;4.05;2.12;;;;;;;16.77;59.00;99629.27;1697076;85;21079;-87
2022/07/20 01:35:52;;;;;;;9.50;2.58;;;;;;;16.73;58.84;99630.32;1697262;84;21023;-86
2022/07/20 01:38:19;;;;;;;13.15;3.05;;;;;;;16.69;58.63;99627.84;1697351;84;21013;-87
2022/07/20 01:40:46;;;;;;;5.05;2.05;;;;;;;16.64;59.29;99627.16;1697633;85;21016;-86
2022/07/20 01:43:13;;;;;;;4.75;2.08;;;;;;;16.63;61.86;99631.16;1697647;85;21038;-86
2022/07/20 01:45:40;;;;;;;6.75;2.30;;;;;;;16.62;60.85;99630.78;1697647;85;21012;-87
2022/07/20 01:48:06;;;;;;;6.72;2.22;;;;;;;16.65;60.79;99629.32;1689257;85;21038;-87
2022/07/20 01:50:33;;;;;;;4.50;2.12;;;;;;;16.66;60.27;99627.11;1674377;85;21097;-87
2022/07/20 01:52:59;;;;;;;9.60;2.22;;;;;;;16.65;60.76;99634.57;1680366;85;21071;-87
2022/07/20 01:55:26;;;;;;;8.38;2.10;;;;;;;16.65;60.23;99637.20;1697608;85;21054;-87
2022/07/20 01:57:53;;;;;;;5.80;2.30;;;;;;;16.61;60.21;99640.44;1694376;84;21055;-87
2022/07/20 02:00:19;;;;;;;7.05;2.40;;;;;;;16.57;60.64;99634.04;1687332;85;20991;-87
2022/07/20 02:02:46;;;;;;;4.83;2.22;;;;;;;16.54;60.17;99634.19;1697234;85;21159;-88
2022/07/20 02:05:13;;;;;;;3.77;2.02;;;;;;;16.54;60.64;99627.63;1697415;85;21016;-88
2022/07/20 02:07:39;;;;;;;7.08;2.67;;;;;;;16.51;60.98;99629.89;1697282;85;21382;-87
2022/07/20 02:10:09;;;;;;;6.12;2.55;;;;;;;16.51;60.39;99625.95;1697540;84;21039;-88
2022/07/20 02:12:36;;;;;;;4.05;2.40;;;;;;;16.49;60.78;99619.91;1697329;84;21020;-87
2022/07/20 02:15:07;;;;;;;6.92;2.72;;;;;;;16.47;61.33;99616.50;1697297;85;21377;-88
2022/07/20 02:17:34;;;;;;;9.10;2.45;;;;;;;16.46;61.81;99622.22;1696291;85;21050;-87
2022/07/20 02:20:01;;;;;;;4.75;2.27;;;;;;;16.45;60.78;99623.15;1697284;83;21417;-86
2022/07/20 02:22:28;;;;;;;6.33;2.50;;;;;;;16.40;60.11;99623.78;1697260;85;20996;-87
2022/07/20 02:24:54;;;;;;;7.37;2.20;;;;;;;16.37;60.73;99625.20;1697305;85;21063;-87
2022/07/20 02:27:21;;;;;;;4.92;2.17;;;;;;;16.34;61.19;99622.72;1697244;85;21039;-86
2022/07/20 02:29:48;;;;;;;8.13;2.33;;;;;;;16.32;62.27;99621.92;1680505;85;21076;-86
2022/07/20 02:32:14;;;;;;;7.70;2.20;;;;;;;16.27;61.90;99630.00;1688547;85;21067;-86
2022/07/20 02:34:41;;;;;;;6.47;2.40;;;;;;;16.20;60.27;99619.80;1696939;84;21339;-86
2022/07/20 02:37:08;;;;;;;10.08;2.60;;;;;;;16.12;61.48;99625.34;1682769;85;21034;-87
2022/07/20 02:39:34;;;;;;;9.58;2.70;;;;;;;16.03;61.39;99630.47;1649276;87;21005;-88
2022/07/20 02:42:01;;;;;;;3.72;2.12;;;;;;;15.96;60.87;99632.95;1665471;85;21035;-87
2022/07/20 02:44:28;;;;;;;7.65;2.45;;;;;;;15.88;59.74;99628.00;1695691;85;21036;-87
2022/07/20 02:46:55;;;;;;;7.83;2.85;;;;;;;15.81;62.41;99636.16;1685645;85;20980;-87
2022/07/20 02:49:21;;;;;;;9.23;2.70;;;;;;;15.77;62.35;99636.72;1675579;83;21099;-88
2022/07/20 02:51:48;;;;;;;11.53;2.58;;;;;;;15.73;60.87;99642.15;1669527;84;21028;-85
2022/07/20 02:54:14;;;;;;;7.05;2.50;;;;;;;15.68;61.62;99635.28;1672077;84;21072;-86
2022/07/20 02:56:41;;;;;;;7.28;2.47;;;;;;;15.65;61.67;99634.07;1650063;87;21043;-87
2022/07/20 02:59:08;;;;;;;6.58;2.12;;;;;;;15.64;62.37;99635.00;1677827;85;21035;-87
2022/07/20 03:01:34;;;;;;;7.55;2.17;;;;;;;15.65;62.37;99638.00;1629774;87;21036;-87
2022/07/20 03:04:01;;;;;;;11.83;2.70;;;;;;;15.65;63.25;99625.36;1655502;85;21094;-87
2022/07/20 03:06:28;;;;;;;6.95;2.20;;;;;;;15.64;63.27;99628.45;1623296;89;21038;-87
2022/07/20 03:08:54;;;;;;;8.95;2.47;;;;;;;15.72;62.70;99632.09;1647960;87;20995;-87
2022/07/20 03:11:21;;;;;;;6.25;2.92;;;;;;;15.78;63.46;99638.91;1652429;87;21067;-87
2022/07/20 03:13:48;;;;;;;8.95;2.45;;;;;;;15.80;63.74;99636.63;1628767;87;21035;-87
2022/07/20 03:16:14;;;;;;;5.22;2.27;;;;;;;15.80;63.95;99641.02;1627027;88;21059;-87
2022/07/20 03:18:41;;;;;;;13.05;2.62;;;;;;;15.79;63.88;99640.61;1642300;87;21031;-87
2022/07/20 03:21:08;;;;;;;7.50;2.87;;;;;;;15.78;63.67;99641.07;1671990;86;21131;-87
2022/07/20 03:23:34;;;;;;;16.70;3.10;;;;;;;15.79;63.33;99638.83;1672125;86;21031;-87
2022/07/20 03:26:01;;;;;;;9.35;2.52;;;;;;;15.77;63.04;99646.36;1672271;86;21031;-87
2022/07/20 03:28:28;;;;;;;5.55;2.50;;;;;;;15.70;64.05;99649.19;1672222;86;21008;-87
2022/07/20 03:30:54;;;;;;;6.80;2.60;;;;;;;15.68;62.85;99644.92;1672052;84;21316;-87
2022/07/20 03:33:21;;;;;;;4.92;2.40;;;;;;;15.63;61.81;99654.70;1672004;86;21035;-87
2022/07/20 03:35:48;;;;;;;8.05;2.42;;;;;;;15.57;63.39;99653.16;1685456;84;21090;-88
2022/07/20 03:38:14;;;;;;;5.58;2.50;;;;;;;15.55;62.46;99652.83;1646304;86;21067;-87
2022/07/20 03:40:41;;;;;;;6.67;2.90;;;;;;;15.55;63.25;99660.22;1697549;85;21055;-88
2022/07/20 03:43:08;;;;;;;10.08;2.80;;;;;;;15.56;64.94;99652.78;1646525;87;21060;-87
2022/07/20 03:45:35;;;;;;;8.93;3.20;;;;;;;15.59;64.48;99650.03;1697207;85;20984;-87
2022/07/20 03:48:01;;;;;;;6.42;2.83;;;;;;;15.63;64.52;99650.31;1697310;85;21023;-87
2022/07/20 03:50:28;;;;;;;7.75;2.50;;;;;;;15.64;64.16;99653.34;1695412;85;20984;-87
2022/07/20 03:52:55;;;;;;;4.97;2.55;;;;;;;15.67;62.89;99651.91;1697491;85;21055;-87
2022/07/20 03:55:22;;;;;;;5.15;2.45;;;;;;;15.73;62.99;99659.19;1697700;85;21058;-87
2022/07/20 03:57:48;;;;;;;9.10;2.60;;;;;;;15.71;61.88;99658.73;1691000;83;21002;-87
2022/07/20 04:00:15;;;;;;;5.90;2.60;;;;;;;15.73;62.30;99657.87;1622666;89;21047;-87
2022/07/20 04:02:42;;;;;;;10.30;2.67;;;;;;;15.77;61.91;99664.72;1620906;89;21079;-87
2022/07/20 04:05:09;;;;;;;9.20;2.37;;;;;;;15.81;62.21;99662.38;1620918;87;21060;-87
2022/07/20 04:07:35;;;;;;;7.65;2.70;;;;;;;15.81;62.52;99667.62;1648415;86;21040;-87
2022/07/20 04:10:04;;;;;;;6.33;2.92;;;;;;;15.82;61.34;99670.66;1666391;84;21055;-87
2022/07/20 04:12:30;;;;;;;7.03;2.60;;;;;;;15.77;63.20;99669.95;1687305;85;21082;-87
2022/07/20 04:14:57;;;;;;;9.18;2.70;;;;;;;15.77;62.40;99672.58;1700200;84;21004;-86
2022/07/20 04:17:24;;;;;;;7.80;2.40;;;;;;;15.77;63.52;99678.67;1700019;84;21075;-87
2022/07/20 04:19:51;;;;;;;7.53;2.72;;;;;;;15.84;62.93;99678.00;1680740;85;21662;-88
2022/07/20 04:22:18;;;;;;;7.10;2.80;;;;;;;15.93;63.38;99684.66;1650667;87;21056;-87
2022/07/20 04:24:44;;;;;;;7.78;2.37;;;;;;;16.01;62.83;99687.38;1650533;85;21047;-87
2022/07/20 04:27:11;;;;;;;9.83;2.62;;;;;;;16.08;62.90;99691.95;1692457;85;21039;-87
2022/07/20 04:29:38;;;;;;;5.30;2.58;;;;;;;16.12;63.63;99686.14;1692564;83;21024;-87
2022/07/20 04:32:05;;;;;;;6.03;2.62;;;;;;;16.21;63.42;99684.45;1692687;85;20984;-87
2022/07/20 04:34:32;;;;;;;6.05;2.65;;;;;;;16.30;63.38;99688.05;1682436;85;21028;-86
2022/07/20 04:36:59;;;;;;;7.33;2.50;;;;;;;16.36;63.43;99683.86;1680902;85;21080;-87
2022/07/20 04:39:26;;;;;;;7.35;2.90;;;;;;;16.40;63.26;99686.76;1680987;85;20979;-87
2022/07/20 04:41:53;;;;;;;8.53;3.50;;;;;;;16.45;63.09;99687.87;1647230;87;21015;-87
2022/07/20 04:44:20;;;;;;;9.30;2.90;;;;;;;16.51;63.02;99683.69;1655178;87;21078;-87
2022/07/20 04:46:46;;;;;;;9.23;3.15;;;;;;;16.59;62.25;99686.89;1656738;87;21091;-87
2022/07/20 04:49:13;;;;;;;5.08;2.70;;;;;;;16.65;62.22;99694.52;1653685;87;21126;-87
2022/07/20 04:51:40;;;;;;;7.80;3.05;;;;;;;16.75;62.06;99689.75;1644304;87;20997;-87
2022/07/20 04:54:06;;;;;;;7.65;2.75;;;;;;;16.85;61.64;99691.11;1626386;84;21011;-87
2022/07/20 04:56:34;;;;;;;11.40;2.80;;;;;;;16.97;61.36;99698.05;1709722;84;21036;-87
2022/07/20 04:59:00;;;;;;;8.55;3.47;;;;;;;17.05;60.21;99698.16;1691573;83;21070;-86
2022/07/20 05:01:27;;;;;;;14.18;3.72;;;;;;;17.06;60.20;99691.96;1681311;83;21075;-86
2022/07/20 05:03:54;;;;;;;7.85;3.50;;;;;;;17.09;60.69;99694.47;1681374;85;21016;-87
2022/07/20 05:06:21;;;;;;;10.32;2.87;;;;;;;17.11;60.72;99690.48;1695249;85;21272;-87
2022/07/20 05:08:48;;;;;;;5.05;2.50;;;;;;;17.14;60.38;99692.11;1672407;85;21768;-85
2022/07/20 05:11:15;;;;;;;7.70;3.65;;;;;;;17.16;60.48;99690.27;1670020;84;21025;-87
2022/07/20 05:13:42;;;;;;;11.38;3.65;;;;;;;17.22;60.35;99695.26;1688712;85;21102;-87
2022/07/20 05:16:10;;;;;;;6.62;3.02;;;;;;;17.32;60.16;99691.78;1637371;87;21014;-86
2022/07/20 05:18:37;;;;;;;10.53;3.30;;;;;;;17.40;60.01;99693.61;1653811;86;21027;-87
2022/07/20 05:21:05;;;;;;;9.23;2.95;;;;;;;17.48;59.68;99698.06;1673904;85;20995;-85
2022/07/20 05:23:32;;;;;;;14.50;3.72;;;;;;;17.54;59.25;99695.63;1681000;85;21043;-85
2022/07/20 05:25:58;;;;;;;12.07;3.70;;;;;;;17.60;59.04;99694.89;1668522;85;20992;-85
2022/07/20 05:28:25;;;;;;;11.88;4.00;;;;;;;17.63;59.97;99703.13;1629045;88;21015;-86
2022/07/20 05:30:52;;;;;;;6.80;2.98;;;;;;;17.70;59.19;99703.22;1642072;87;21066;-86
2022/07/20 05:33:20;;;;;;;6.50;2.80;;;;;;;17.78;59.50;99699.78;1679414;85;21067;-87
2022/07/20 05:35:49;;;;;;;9.50;3.40;;;;;;;17.85;59.00;99697.78;1664499;85;22290;-86
2022/07/20 05:38:17;;;;;;;5.87;2.65;;;;;;;17.94;58.62;99696.50;1673462;86;21008;-86
2022/07/20 05:40:45;;;;;;;9.03;2.95;;;;;;;18.05;58.82;99697.72;1696991;85;21056;-85
2022/07/20 05:43:11;;;;;;;7.72;3.10;;;;;;;18.17;58.32;99696.77;1697079;84;21024;-86
2022/07/20 05:45:38;;;;;;;7.97;3.08;;;;;;;18.28;58.14;99697.09;1696450;85;21541;-86
2022/07/20 05:48:06;;;;;;;8.88;3.17;;;;;;;18.40;58.13;99693.02;1673987;86;21011;-86
2022/07/20 05:50:33;;;;;;;8.68;2.70;;;;;;;18.51;58.09;99684.16;1613209;87;21000;-86
2022/07/20 05:52:59;;;;;;;6.15;2.70;;;;;;;18.68;57.64;99680.69;1689668;85;20988;-86
2022/07/20 05:55:26;;;;;;;9.30;2.75;;;;;;;18.78;57.30;99671.42;1699778;84;21012;-86
2022/07/20 05:57:53;;;;;;;15.25;3.25;;;;;;;18.90;57.27;99680.97;1692172;85;21040;-87
2022/07/20 06:00:19;;;;;;;11.57;3.25;;;;;;;19.03;56.86;99678.12;1683245;84;21032;-86
2022/07/20 06:02:46;;;;;;;15.80;4.80;;;;;;;19.14;56.65;99676.24;1688148;85;21099;-86
2022/07/20 06:05:12;;;;;;;6.62;2.77;;;;;;;19.27;56.42;99669.42;1699668;84;21011;-86
2022/07/20 06:07:39;;;;;;;7.92;2.50;;;;;;;19.41;55.81;99672.66;1681741;85;21011;-85
2022/07/20 06:10:07;;;;;;;9.83;2.75;;;;;;;19.54;55.00;99672.87;1694235;85;20999;-86
2022/07/20 06:12:35;;;;;;;8.05;2.52;;;;;;;19.64;55.17;99669.66;1678126;85;21075;-86
2022/07/20 06:15:01;;;;;;;10.53;2.95;;;;;;;19.80;54.20;99675.00;1683557;85;21046;-85
2022/07/20 06:17:39;;;;;;;4.60;2.00;;;;;;;19.89;54.33;99680.23;1694361;85;21484;-85
2022/07/20 06:20:10;;;;;;;6.30;2.70;;;;;;;20.00;53.90;99683.15;1667188;86;21067;-86
2022/07/20 06:22:38;;;;;;;13.45;2.95;;;;;;;20.11;53.75;99677.74;1661578;85;21024;-86
2022/07/20 06:25:07;;;;;;;8.43;2.83;;;;;;;20.24;53.31;99676.98;1674030;85;21004;-87
2022/07/20 06:27:33;;;;;;;11.78;3.12;;;;;;;20.33;53.16;99682.20;1673475;86;21120;-86
2022/07/20 06:30:00;;;;;;;6.45;2.77;;;;;;;20.44;52.72;99676.33;1673035;86;21063;-86
2022/07/20 06:32:27;;;;;;;11.90;2.52;;;;;;;20.56;52.01;99674.78;1668262;86;21057;-86
2022/07/20 06:34:56;;;;;;;7.28;2.35;;;;;;;20.63;51.78;99677.47;1656452;85;21023;-86
2022/07/20 06:37:22;;;;;;;9.50;2.27;;;;;;;20.75;51.98;99675.91;1661717;86;21708;-86
2022/07/20 06:39:49;;;;;;;10.00;2.05;;;;;;;20.82;51.76;99677.27;1664271;86;21014;-85
2022/07/20 06:42:16;;;;;;;11.08;2.02;;;;;;;20.93;51.19;99676.63;1669580;86;21027;-86
2022/07/20 06:44:44;;;;;;;7.87;2.00;;;;;;;21.04;50.85;99679.03;1671412;86;21003;-86
2022/07/20 06:47:11;;;;;;;8.08;2.20;;;;;;;21.15;49.60;99676.21;1664035;86;20965;-86
2022/07/20 06:49:37;;;;;;;7.42;2.05;;;;;;;21.24;50.10;99678.31;1646807;86;21067;-86
2022/07/20 06:52:05;;;;;;;7.03;2.08;;;;;;;21.36;49.78;99678.89;1671447;86;21094;-87
2022/07/20 06:54:31;;;;;;;6.25;1.67;;;;;;;21.50;49.19;99678.09;1674290;85;21073;-84
2022/07/20 06:56:58;;;;;;;7.85;1.90;;;;;;;21.60;47.18;99675.25;1676624;85;21011;-88
2022/07/20 06:59:25;;;;;;;5.10;2.30;;;;;;;21.72;47.24;99663.06;1656335;86;20998;-87
2022/07/20 07:01:52;;;;;;;10.50;2.42;;;;;;;21.84;47.72;99668.06;1677435;86;21124;-87
2022/07/20 07:04:19;;;;;;;7.53;3.20;;;;;;;21.93;47.70;99660.88;1676605;86;21069;-87
2022/07/20 07:06:46;;;;;;;5.97;3.45;;;;;;;22.08;47.92;99667.47;1677495;86;21085;-87
2022/07/20 07:09:13;;;;;;;8.58;2.02;;;;;;;22.22;47.43;99662.13;1660919;86;21031;-87
2022/07/20 07:11:39;;;;;;;4.33;1.80;;;;;;;22.35;46.59;99661.76;1666457;85;21012;-86
2022/07/20 07:14:06;;;;;;;8.10;1.95;;;;;;;22.49;46.26;99653.39;1666828;86;21068;-87
2022/07/20 07:16:33;;;;;;;3.37;1.70;;;;;;;22.60;46.26;99658.36;1671101;86;21039;-87
2022/07/20 07:19:00;;;;;;;5.08;1.70;;;;;;;22.77;45.44;99652.41;1672022;86;21023;-86
2022/07/20 07:21:26;;;;;;;3.87;1.85;;;;;;;22.88;44.38;99651.23;1671559;86;21326;-87
2022/07/20 07:23:53;;;;;;;7.08;2.27;;;;;;;22.98;44.62;99649.64;1650410;87;20991;-88
2022/07/20 07:26:22;;;;;;;5.30;1.87;;;;;;;23.10;44.78;99651.98;1661748;85;21063;-88
2022/07/20 07:28:51;;;;;;;6.97;1.87;;;;;;;23.22;43.73;99652.94;1666737;86;21072;-87
2022/07/20 07:31:18;;;;;;;7.95;2.15;;;;;;;23.34;44.48;99648.59;1655267;86;21031;-85
2022/07/20 07:33:46;;;;;;;6.62;2.00;;;;;;;23.47;43.77;99645.44;1663415;86;21140;-87
2022/07/20 07:36:13;;;;;;;4.42;1.90;;;;;;;23.63;43.35;99642.55;1663516;84;21070;-86
2022/07/20 07:38:40;;;;;;;7.80;2.00;;;;;;;23.76;43.42;99647.38;1678146;85;21629;-87
2022/07/20 07:41:07;;;;;;;5.05;1.80;;;;;;;23.92;43.24;99648.98;1692001;85;21027;-87
2022/07/20 07:43:34;;;;;;;6.25;2.17;;;;;;;24.08;42.43;99644.73;1675685;84;21035;-87
2022/07/20 07:46:01;;;;;;;5.72;1.72;;;;;;;24.22;42.49;99647.23;1674170;86;21054;-86
2022/07/20 07:48:28;;;;;;;3.33;1.80;;;;;;;24.36;41.85;99643.56;1680629;85;20975;-87
2022/07/20 07:50:54;;;;;;;3.75;1.77;;;;;;;24.46;41.90;99639.25;1647574;86;21053;-87
2022/07/20 07:53:25;;;;;;;5.85;1.80;;;;;;;24.56;41.60;99630.99;1672164;85;21098;-87
2022/07/20 07:55:52;;;;;;;7.53;1.90;;;;;;;24.67;40.76;99633.32;1670798;85;21101;-87
2022/07/20 07:58:23;;;;;;;4.35;1.77;;;;;;;24.73;40.88;99627.08;1659989;86;21070;-86
2022/07/20 08:00:49;;;;;;;8.70;1.90;;;;;;;24.86;40.13;99632.80;1673309;86;21099;-86
2022/07/20 08:03:17;;;;;;;5.17;2.87;;;;;;;24.94;40.24;99622.41;1696683;85;21027;-87
2022/07/20 08:05:44;;;;;;;7.30;3.27;;;;;;;25.03;40.43;99618.19;1672178;85;21153;-87
2022/07/20 08:08:14;;;;;;;9.58;3.30;;;;;;;25.16;40.18;99626.44;1693666;85;21059;-86
2022/07/20 08:10:43;;;;;;;4.00;2.00;;;;;;;25.32;39.80;99621.30;1689662;85;21038;-86
2022/07/20 08:13:11;;;;;;;8.80;2.10;;;;;;;25.43;39.62;99623.97;1639352;87;21154;-87
2022/07/20 08:15:39;;;;;;;4.15;2.02;;;;;;;25.54;39.51;99623.95;1671804;85;21055;-87
2022/07/20 08:18:08;;;;;;;6.53;1.70;;;;;;;25.62;39.34;99620.69;1680645;85;21056;-85
2022/07/20 08:20:35;;;;;;;4.17;1.90;;;;;;;25.72;38.89;99624.80;1688086;85;20972;-86
2022/07/20 08:23:04;;;;;;;5.28;1.95;;;;;;;25.81;38.87;99617.42;1690730;85;21123;-86
2022/07/20 08:25:33;;;;;;;5.55;2.20;;;;;;;25.93;38.48;99613.79;1685658;85;21015;-86
2022/07/20 08:28:18;;;;;;;4.22;1.90;;;;;;;26.07;38.70;99613.16;1697087;85;21032;-86
2022/07/20 08:30:49;;;;;;;4.22;1.90;;;;;;;26.23;38.28;99610.93;1696915;85;21031;-87
2022/07/20 08:33:21;;;;;;;4.40;2.17;;;;;;;26.41;38.19;99605.06;1670257;85;21218;-85
2022/07/20 08:35:48;;;;;;;4.58;2.17;;;;;;;26.56;37.95;99607.76;1662842;85;21079;-87
2022/07/20 08:38:18;;;;;;;6.37;3.30;;;;;;;26.65;37.56;99605.70;1677550;85;21087;-86
2022/07/20 08:40:48;;;;;;;5.55;2.90;;;;;;;26.76;37.65;99602.98;1627196;87;21044;-87
2022/07/20 08:43:16;;;;;;;8.30;2.10;;;;;;;26.84;36.51;99599.67;1697075;85;21087;-85
2022/07/20 08:45:44;;;;;;;6.97;2.00;;;;;;;26.94;36.81;99600.57;1692878;85;20969;-87
2022/07/20 08:48:16;;;;;;;3.75;1.77;;;;;;;26.96;36.86;99594.61;1619844;86;21136;-87
2022/07/20 08:50:46;;;;;;;3.35;1.90;;;;;;;27.11;36.72;99598.27;1682837;85;21084;-87
2022/07/20 08:53:16;;;;;;;7.65;2.00;;;;;;;27.25;36.57;99593.11;1688620;84;20987;-87
2022/07/20 08:55:47;;;;;;;3.15;1.62;;;;;;;27.34;33.80;99585.14;1652865;87;21554;-87
2022/07/20 08:58:16;;;;;;;8.30;1.92;;;;;;;27.46;34.58;99594.41;1628957;87;21080;-87
2022/07/20 09:00:46;;;;;;;3.25;1.80;;;;;;;27.53;33.29;99589.70;1646182;87;21064;-87
2022/07/20 09:03:17;;;;;;;5.08;1.80;;;;;;;27.64;34.12;99583.92;1686311;85;21016;-88
2022/07/20 09:05:46;;;;;;;3.98;1.77;;;;;;;27.72;34.50;99585.42;1692039;85;21099;-87
2022/07/20 09:08:17;;;;;;;3.98;1.70;;;;;;;27.85;34.58;99583.32;1636596;86;21075;-87
2022/07/20 09:10:50;;;;;;;5.35;1.87;;;;;;;28.00;34.52;99582.98;1642079;86;20986;-87
2022/07/20 09:13:21;;;;;;;;;;;;;;;28.10;34.09;99581.16;1693463;85;21127;-88
2022/07/20 09:15:55;;;;;;;4.67;1.87;;;;;;;28.17;33.51;99578.27;1660371;85;20083;-87
2022/07/20 09:18:27;;;;;;;3.70;1.77;;;;;;;28.23;33.74;99579.08;1692174;85;20948;-88
2022/07/20 09:21:01;;;;;;;6.12;1.98;;;;;;;28.32;32.97;99578.72;1692458;85;21095;-86
2022/07/20 09:23:46;;;;;;;4.40;1.60;;;;;;;28.29;32.00;99566.95;1688895;84;21020;-87
2022/07/20 09:26:17;;;;;;;5.28;1.87;;;;;;;28.36;32.95;99568.92;1678767;84;20972;-87
2022/07/20 09:28:50;;;;;;;6.35;3.83;;;;;;;28.51;33.15;99572.53;1674172;85;21030;-87
2022/07/20 09:31:21;;;;;;;8.75;2.52;;;;;;;28.63;32.97;99560.72;1644260;86;21054;-88
2022/07/20 09:34:12;;;;;;;4.42;1.80;;;;;;;28.75;31.65;99566.25;1636870;86;21087;-86
2022/07/20 09:36:46;;;;;;;3.47;1.80;;;;;;;28.81;31.38;99561.30;1680991;84;21023;-87
2022/07/20 09:39:18;;;;;;;3.08;1.70;;;;;;;28.88;31.88;99557.90;1631678;87;21075;-87
2022/07/20 09:41:56;;;;;;;7.03;1.70;;;;;;;29.04;31.67;99552.44;1586415;88;21051;-87
2022/07/20 09:44:27;;;;;;;3.12;1.50;;;;;;;29.22;30.99;99556.56;1615871;87;21116;-88
2022/07/20 09:46:55;;;;;;;3.40;1.50;;;;;;;29.32;31.45;99547.48;1670503;86;21047;-88
2022/07/20 09:49:32;;;;;;;3.77;1.40;;;;;;;29.45;31.10;99547.16;1646859;86;21099;-87
2022/07/20 09:52:05;;;;;;;10.03;2.37;;;;;;;29.57;30.92;99547.80;1670472;86;21073;-88
2022/07/20 09:54:32;;;;;;;3.50;1.60;;;;;;;29.70;30.83;99538.05;1637099;87;20987;-87
2022/07/20 09:57:02;;;;;;;3.10;1.57;;;;;;;29.83;30.46;99533.72;1622872;87;21044;-87
2022/07/20 09:59:30;;;;;;;4.12;1.30;;;;;;;29.98;29.99;99529.50;1623449;86;21012;-87
2022/07/20 10:01:59;;;;;;;3.33;1.50;;;;;;;30.07;28.49;99530.44;1660603;86;20968;-87
2022/07/20 10:04:27;;;;;;;2.67;1.40;;;;;;;30.07;27.89;99533.12;1623220;86;21107;-87
2022/07/20 10:06:55;;;;;;;8.03;1.90;;;;;;;30.05;27.96;99521.70;1665055;86;21046;-87
2022/07/20 10:09:26;;;;;;;6.97;1.70;;;;;;;30.12;28.15;99520.08;1643396;86;21814;-86
2022/07/20 10:11:55;;;;;;;5.30;1.80;;;;;;;30.21;27.66;99520.50;1670510;86;21101;-85
2022/07/20 10:14:24;;;;;;;3.17;1.62;;;;;;;30.35;27.92;99518.31;1632769;87;21070;-89
2022/07/20 10:16:54;;;;;;;4.22;1.55;;;;;;;30.49;27.58;99507.01;1626013;87;21034;-87
2022/07/20 10:19:49;;;;;;;5.15;1.77;;;;;;;30.50;27.10;99504.17;1623454;88;21039;-88
2022/07/20 10:22:14;;;;;;;3.92;1.60;;;;;;;30.50;27.04;99499.29;1624540;88;21075;-88
2022/07/20 10:24:44;;;;;;;8.08;1.65;;;;;;;30.56;27.57;99494.66;1665675;86;21020;-86
2022/07/20 10:27:25;;;;;;;4.78;1.62;;;;;;;30.67;27.44;99488.18;1634190;86;21039;-88
2022/07/20 10:29:55;;;;;;;5.60;1.65;;;;;;;30.75;26.05;99481.52;1665718;86;21022;-87
2022/07/20 10:32:25;;;;;;;3.37;1.67;;;;;;;30.83;26.82;99480.22;1643551;85;21113;-88
2022/07/20 10:35:00;;;;;;;5.15;1.87;;;;;;;30.86;26.79;99473.70;1626506;87;21016;-83
2022/07/20 10:37:39;;;;;;;7.87;1.80;;;;;;;30.95;27.26;99474.10;1608449;87;21397;-86
2022/07/20 10:40:17;;;;;;;3.80;1.60;;;;;;;31.08;26.59;99473.16;1648307;87;21038;-87
2022/07/20 10:42:55;;;;;;;3.45;1.67;;;;;;;31.10;26.15;99467.64;1647065;87;21015;-87
2022/07/20 10:45:33;;;;;;;4.35;1.80;;;;;;;31.07;26.17;99468.78;1621310;87;21028;-88
2022/07/20 10:48:14;;;;;;;6.28;3.45;;;;;;;31.08;25.24;99469.64;1625048;87;21099;-87
2022/07/20 10:50:54;;;;;;;4.47;2.20;;;;;;;31.13;25.98;99468.13;1630591;87;20979;-89
2022/07/20 10:53:32;;;;;;;4.80;1.87;;;;;;;31.18;26.08;99468.14;1646533;87;21107;-88
2022/07/20 10:56:03;;;;;;;5.15;1.92;;;;;;;31.20;26.54;99465.66;1630222;87;21000;-88
2022/07/20 10:58:35;;;;;;;3.52;1.90;;;;;;;31.24;26.24;99455.44;1638770;87;21043;-88
2022/07/20 11:01:07;;;;;;;6.35;1.65;;;;;;;31.20;26.33;99454.91;1623172;84;21047;-87
2022/07/20 11:03:48;;;;;;;8.30;2.22;;;;;;;31.27;26.47;99447.87;1680936;84;21072;-88
2022/07/20 11:06:21;;;;;;;4.83;1.90;;;;;;;31.37;26.46;99452.27;1680177;84;20981;-87
2022/07/20 11:08:53;;;;;;;3.90;1.65;;;;;;;31.47;26.53;99452.48;1694453;84;21053;-88
2022/07/20 11:11:23;;;;;;;5.65;1.98;;;;;;;31.62;26.27;99447.33;1684280;84;20996;-87
2022/07/20 11:13:50;;;;;;;5.83;2.02;;;;;;;31.58;25.74;99442.45;1694694;84;21029;-86
2022/07/20 11:16:21;;;;;;;3.27;1.90;;;;;;;31.58;26.07;99439.26;1643112;87;21022;-87
2022/07/20 11:18:49;;;;;;;3.80;1.80;;;;;;;31.62;25.96;99440.61;1685548;85;21048;-87
2022/07/20 11:21:16;;;;;;;5.05;1.95;;;;;;;31.63;26.06;99430.69;1692970;84;21078;-88
2022/07/20 11:23:50;;;;;;;4.00;2.00;;;;;;;31.73;26.06;99430.53;1704872;84;21041;-85
2022/07/20 11:26:20;;;;;;;4.20;2.10;;;;;;;31.87;24.66;99436.11;1703358;84;20975;-87
2022/07/20 11:28:54;;;;;;;8.13;1.90;;;;;;;31.94;25.56;99427.36;1696627;84;21067;-87
2022/07/20 11:31:30;;;;;;;4.45;2.00;;;;;;;31.96;25.56;99419.97;1667641;84;21035;-86
2022/07/20 11:33:59;;;;;;;3.47;1.90;;;;;;;32.04;24.74;99425.38;1669199;84;21087;-87
2022/07/20 11:36:32;;;;;;;3.42;2.00;;;;;;;32.11;24.42;99418.29;1696463;84;21027;-87
2022/07/20 11:39:04;;;;;;;5.25;2.10;;;;;;;32.14;24.99;99417.97;1692898;85;21064;-87
2022/07/20 11:41:40;;;;;;;4.90;2.00;;;;;;;32.26;25.23;99412.56;1696294;85;21019;-86